sensor_id;sensor_type;location;lat;lon;timestamp;temperature;humidity
12413;DHT22;13877;18.896;-99.222;2022-07-30T00:00:07;25.80;66.90
12413;DHT22;13877;18.896;-99.222;2022-07-30T00:02:34;25.80;66.40
12413;DHT22;13877;18.896;-99.222;2022-07-30T00:05:02;25.60;67.30
12413;DHT22;13877;18.896;-99.222;2022-07-30T00:07:29;25.50;68.50
12413;DHT22;13877;18.896;-99.222;2022-07-30T00:09:56;25.40;69.00
12413;DHT22;13877;18.896;-99.222;2022-07-30T00:12:23;25.30;69.30
12413;DHT22;13877;18.896;-99.222;2022-07-30T00:14:50;25.20;71.00
12413;DHT22;13877;18.896;-99.222;2022-07-30T00:17:17;25.20;70.10
12413;DHT22;13877;18.896;-99.222;2022-07-30T00:19:44;25.00;71.30
12413;DHT22;13877;18.896;-99.222;2022-07-30T00:22:10;25.00;71.00
12413;DHT22;13877;18.896;-99.222;2022-07-30T00:24:37;25.00;71.20
12413;DHT22;13877;18.896;-99.222;2022-07-30T00:27:04;25.00;73.80
12413;DHT22;13877;18.896;-99.222;2022-07-30T00:29:31;24.90;73.20
12413;DHT22;13877;18.896;-99.222;2022-07-30T00:31:58;24.80;74.30
12413;DHT22;13877;18.896;-99.222;2022-07-30T00:34:25;24.60;72.00
12413;DHT22;13877;18.896;-99.222;2022-07-30T00:36:52;24.60;73.10
12413;DHT22;13877;18.896;-99.222;2022-07-30T00:39:18;24.60;73.00
12413;DHT22;13877;18.896;-99.222;2022-07-30T00:41:54;24.50;71.70
12413;DHT22;13877;18.896;-99.222;2022-07-30T00:44:20;24.50;73.20
12413;DHT22;13877;18.896;-99.222;2022-07-30T00:46:47;24.40;73.30
12413;DHT22;13877;18.896;-99.222;2022-07-30T00:49:14;24.30;73.50
12413;DHT22;13877;18.896;-99.222;2022-07-30T00:51:41;24.30;74.00
12413;DHT22;13877;18.896;-99.222;2022-07-30T00:54:09;24.20;74.70
12413;DHT22;13877;18.896;-99.222;2022-07-30T00:56:36;24.20;73.80
12413;DHT22;13877;18.896;-99.222;2022-07-30T00:59:03;24.20;74.00
12413;DHT22;13877;18.896;-99.222;2022-07-30T01:01:31;24.10;73.70
12413;DHT22;13877;18.896;-99.222;2022-07-30T01:03:59;24.00;72.80
12413;DHT22;13877;18.896;-99.222;2022-07-30T01:06:26;24.00;72.60
12413;DHT22;13877;18.896;-99.222;2022-07-30T01:08:52;24.00;73.20
12413;DHT22;13877;18.896;-99.222;2022-07-30T01:11:21;23.90;74.10
12413;DHT22;13877;18.896;-99.222;2022-07-30T01:13:49;23.80;73.80
12413;DHT22;13877;18.896;-99.222;2022-07-30T01:16:16;23.70;73.70
12413;DHT22;13877;18.896;-99.222;2022-07-30T01:18:44;23.70;74.00
12413;DHT22;13877;18.896;-99.222;2022-07-30T01:21:38;23.60;73.80
12413;DHT22;13877;18.896;-99.222;2022-07-30T01:24:46;23.60;74.80
12413;DHT22;13877;18.896;-99.222;2022-07-30T01:27:15;23.60;75.10
12413;DHT22;13877;18.896;-99.222;2022-07-30T01:29:45;23.50;75.20
12413;DHT22;13877;18.896;-99.222;2022-07-30T01:32:12;23.50;74.90
12413;DHT22;13877;18.896;-99.222;2022-07-30T01:34:41;23.50;76.20
12413;DHT22;13877;18.896;-99.222;2022-07-30T01:37:11;23.50;76.20
12413;DHT22;13877;18.896;-99.222;2022-07-30T01:39:38;23.40;75.40
12413;DHT22;13877;18.896;-99.222;2022-07-30T01:42:06;23.40;75.30
12413;DHT22;13877;18.896;-99.222;2022-07-30T01:44:35;23.40;75.60
12413;DHT22;13877;18.896;-99.222;2022-07-30T01:47:04;23.40;76.60
12413;DHT22;13877;18.896;-99.222;2022-07-30T01:49:34;23.30;76.20
12413;DHT22;13877;18.896;-99.222;2022-07-30T01:52:03;23.20;75.70
12413;DHT22;13877;18.896;-99.222;2022-07-30T01:54:31;23.20;76.80
12413;DHT22;13877;18.896;-99.222;2022-07-30T01:57:00;23.20;75.70
12413;DHT22;13877;18.896;-99.222;2022-07-30T01:59:28;23.20;75.50
12413;DHT22;13877;18.896;-99.222;2022-07-30T02:01:56;23.30;76.10
12413;DHT22;13877;18.896;-99.222;2022-07-30T02:04:23;23.30;76.00
12413;DHT22;13877;18.896;-99.222;2022-07-30T02:09:54;23.10;76.20
12413;DHT22;13877;18.896;-99.222;2022-07-30T02:12:24;23.10;77.60
12413;DHT22;13877;18.896;-99.222;2022-07-30T02:18:02;23.00;76.60
12413;DHT22;13877;18.896;-99.222;2022-07-30T02:20:31;22.90;77.10
12413;DHT22;13877;18.896;-99.222;2022-07-30T02:23:06;22.80;77.30
12413;DHT22;13877;18.896;-99.222;2022-07-30T02:25:37;22.60;80.20
12413;DHT22;13877;18.896;-99.222;2022-07-30T02:28:10;22.40;82.30
12413;DHT22;13877;18.896;-99.222;2022-07-30T02:30:51;22.40;83.90
12413;DHT22;13877;18.896;-99.222;2022-07-30T02:33:28;22.40;85.00
12413;DHT22;13877;18.896;-99.222;2022-07-30T02:35:59;22.30;85.10
12413;DHT22;13877;18.896;-99.222;2022-07-30T02:38:27;22.00;87.60
12413;DHT22;13877;18.896;-99.222;2022-07-30T02:40:56;21.90;90.10
12413;DHT22;13877;18.896;-99.222;2022-07-30T02:43:25;21.80;91.10
12413;DHT22;13877;18.896;-99.222;2022-07-30T02:45:53;21.60;91.90
12413;DHT22;13877;18.896;-99.222;2022-07-30T02:48:24;21.60;92.90
12413;DHT22;13877;18.896;-99.222;2022-07-30T02:50:54;21.50;93.40
12413;DHT22;13877;18.896;-99.222;2022-07-30T02:53:45;21.40;94.70
12413;DHT22;13877;18.896;-99.222;2022-07-30T02:56:31;21.20;95.60
12413;DHT22;13877;18.896;-99.222;2022-07-30T02:59:01;21.10;96.70
12413;DHT22;13877;18.896;-99.222;2022-07-30T03:01:30;21.20;96.70
12413;DHT22;13877;18.896;-99.222;2022-07-30T03:04:00;21.30;96.10
12413;DHT22;13877;18.896;-99.222;2022-07-30T03:06:28;21.20;96.60
12413;DHT22;13877;18.896;-99.222;2022-07-30T03:08:56;21.20;97.10
12413;DHT22;13877;18.896;-99.222;2022-07-30T03:11:24;21.20;97.20
12413;DHT22;13877;18.896;-99.222;2022-07-30T03:13:52;21.00;98.30
12413;DHT22;13877;18.896;-99.222;2022-07-30T03:16:21;20.80;98.60
12413;DHT22;13877;18.896;-99.222;2022-07-30T03:18:49;20.80;99.10
12413;DHT22;13877;18.896;-99.222;2022-07-30T03:21:18;20.80;99.20
12413;DHT22;13877;18.896;-99.222;2022-07-30T03:23:46;20.80;99.20
12413;DHT22;13877;18.896;-99.222;2022-07-30T03:26:15;20.90;99.00
12413;DHT22;13877;18.896;-99.222;2022-07-30T03:28:46;21.10;98.80
12413;DHT22;13877;18.896;-99.222;2022-07-30T03:31:15;21.30;98.70
12413;DHT22;13877;18.896;-99.222;2022-07-30T03:33:43;21.50;98.40
12413;DHT22;13877;18.896;-99.222;2022-07-30T03:36:12;21.50;99.50
12413;DHT22;13877;18.896;-99.222;2022-07-30T03:38:41;21.40;99.40
12413;DHT22;13877;18.896;-99.222;2022-07-30T03:41:09;21.40;99.20
12413;DHT22;13877;18.896;-99.222;2022-07-30T03:43:40;21.40;99.50
12413;DHT22;13877;18.896;-99.222;2022-07-30T03:46:09;21.40;99.10
12413;DHT22;13877;18.896;-99.222;2022-07-30T03:48:41;21.40;99.40
12413;DHT22;13877;18.896;-99.222;2022-07-30T03:51:27;21.50;98.80
12413;DHT22;13877;18.896;-99.222;2022-07-30T03:53:55;21.60;98.20
12413;DHT22;13877;18.896;-99.222;2022-07-30T03:56:41;21.50;97.20
12413;DHT22;13877;18.896;-99.222;2022-07-30T03:59:17;21.70;97.20
12413;DHT22;13877;18.896;-99.222;2022-07-30T04:01:44;21.70;96.90
12413;DHT22;13877;18.896;-99.222;2022-07-30T04:04:28;21.50;97.30
12413;DHT22;13877;18.896;-99.222;2022-07-30T04:06:58;21.70;96.60
12413;DHT22;13877;18.896;-99.222;2022-07-30T04:09:25;21.60;97.00
12413;DHT22;13877;18.896;-99.222;2022-07-30T04:11:52;21.70;97.20
12413;DHT22;13877;18.896;-99.222;2022-07-30T04:14:24;21.70;96.90
12413;DHT22;13877;18.896;-99.222;2022-07-30T04:17:00;21.60;97.20
12413;DHT22;13877;18.896;-99.222;2022-07-30T04:19:33;21.40;97.70
12413;DHT22;13877;18.896;-99.222;2022-07-30T04:22:02;21.50;97.50
12413;DHT22;13877;18.896;-99.222;2022-07-30T04:24:32;21.40;98.00
12413;DHT22;13877;18.896;-99.222;2022-07-30T04:27:01;21.20;98.20
12413;DHT22;13877;18.896;-99.222;2022-07-30T04:29:30;21.30;98.10
12413;DHT22;13877;18.896;-99.222;2022-07-30T04:31:57;21.40;98.10
12413;DHT22;13877;18.896;-99.222;2022-07-30T04:34:32;21.30;98.20
12413;DHT22;13877;18.896;-99.222;2022-07-30T04:37:01;21.30;98.60
12413;DHT22;13877;18.896;-99.222;2022-07-30T04:39:28;21.20;98.80
12413;DHT22;13877;18.896;-99.222;2022-07-30T04:41:56;21.00;98.90
12413;DHT22;13877;18.896;-99.222;2022-07-30T04:44:25;21.00;98.90
12413;DHT22;13877;18.896;-99.222;2022-07-30T04:47:19;21.00;98.90
12413;DHT22;13877;18.896;-99.222;2022-07-30T04:49:59;21.00;99.10
12413;DHT22;13877;18.896;-99.222;2022-07-30T04:52:26;21.10;98.50
12413;DHT22;13877;18.896;-99.222;2022-07-30T04:54:58;21.10;98.60
12413;DHT22;13877;18.896;-99.222;2022-07-30T04:57:26;21.10;98.40
12413;DHT22;13877;18.896;-99.222;2022-07-30T04:59:54;21.10;98.30
12413;DHT22;13877;18.896;-99.222;2022-07-30T05:02:23;21.00;98.60
12413;DHT22;13877;18.896;-99.222;2022-07-30T05:04:51;21.10;98.30
12413;DHT22;13877;18.896;-99.222;2022-07-30T05:07:20;21.20;98.40
12413;DHT22;13877;18.896;-99.222;2022-07-30T05:09:48;21.20;97.90
12413;DHT22;13877;18.896;-99.222;2022-07-30T05:12:15;21.20;98.30
12413;DHT22;13877;18.896;-99.222;2022-07-30T05:14:42;20.80;98.80
12413;DHT22;13877;18.896;-99.222;2022-07-30T05:17:09;20.60;99.50
12413;DHT22;13877;18.896;-99.222;2022-07-30T05:19:36;20.60;99.50
12413;DHT22;13877;18.896;-99.222;2022-07-30T05:22:03;20.40;99.90
12413;DHT22;13877;18.896;-99.222;2022-07-30T05:24:31;20.30;99.90
12413;DHT22;13877;18.896;-99.222;2022-07-30T05:26:58;20.50;99.90
12413;DHT22;13877;18.896;-99.222;2022-07-30T05:29:26;20.60;99.90
12413;DHT22;13877;18.896;-99.222;2022-07-30T05:31:58;20.60;99.90
12413;DHT22;13877;18.896;-99.222;2022-07-30T05:34:25;20.50;99.90
12413;DHT22;13877;18.896;-99.222;2022-07-30T05:36:53;20.20;99.90
12413;DHT22;13877;18.896;-99.222;2022-07-30T05:39:21;19.90;99.90
12413;DHT22;13877;18.896;-99.222;2022-07-30T05:42:03;19.80;99.90
12413;DHT22;13877;18.896;-99.222;2022-07-30T05:44:38;19.80;99.90
12413;DHT22;13877;18.896;-99.222;2022-07-30T05:47:05;19.90;99.90
12413;DHT22;13877;18.896;-99.222;2022-07-30T05:49:32;19.90;99.90
12413;DHT22;13877;18.896;-99.222;2022-07-30T05:52:08;19.90;99.90
12413;DHT22;13877;18.896;-99.222;2022-07-30T05:54:36;19.90;99.90
12413;DHT22;13877;18.896;-99.222;2022-07-30T05:57:21;20.10;99.90
12413;DHT22;13877;18.896;-99.222;2022-07-30T05:59:48;20.20;99.90
12413;DHT22;13877;18.896;-99.222;2022-07-30T06:02:38;20.20;99.90
12413;DHT22;13877;18.896;-99.222;2022-07-30T06:05:24;20.20;99.90
12413;DHT22;13877;18.896;-99.222;2022-07-30T06:07:53;20.10;99.90
12413;DHT22;13877;18.896;-99.222;2022-07-30T06:10:22;20.10;99.90
12413;DHT22;13877;18.896;-99.222;2022-07-30T06:12:49;20.20;99.90
12413;DHT22;13877;18.896;-99.222;2022-07-30T06:15:18;20.20;99.90
12413;DHT22;13877;18.896;-99.222;2022-07-30T06:17:46;20.20;99.90
12413;DHT22;13877;18.896;-99.222;2022-07-30T06:20:18;20.20;99.90
12413;DHT22;13877;18.896;-99.222;2022-07-30T06:22:54;20.10;99.90
12413;DHT22;13877;18.896;-99.222;2022-07-30T06:25:48;20.00;99.90
12413;DHT22;13877;18.896;-99.222;2022-07-30T06:28:17;20.00;99.90
12413;DHT22;13877;18.896;-99.222;2022-07-30T06:30:45;20.00;99.90
12413;DHT22;13877;18.896;-99.222;2022-07-30T06:33:14;20.00;99.90
12413;DHT22;13877;18.896;-99.222;2022-07-30T06:35:41;19.90;99.90
12413;DHT22;13877;18.896;-99.222;2022-07-30T06:38:10;19.70;99.90
12413;DHT22;13877;18.896;-99.222;2022-07-30T06:40:50;19.70;99.90
12413;DHT22;13877;18.896;-99.222;2022-07-30T06:43:25;19.80;99.90
12413;DHT22;13877;18.896;-99.222;2022-07-30T06:46:20;19.80;99.90
12413;DHT22;13877;18.896;-99.222;2022-07-30T06:48:49;19.80;99.90
12413;DHT22;13877;18.896;-99.222;2022-07-30T06:51:17;19.80;99.90
12413;DHT22;13877;18.896;-99.222;2022-07-30T06:53:44;19.70;99.90
12413;DHT22;13877;18.896;-99.222;2022-07-30T06:56:12;19.60;99.90
12413;DHT22;13877;18.896;-99.222;2022-07-30T06:58:46;19.60;99.90
12413;DHT22;13877;18.896;-99.222;2022-07-30T07:01:36;19.60;99.90
12413;DHT22;13877;18.896;-99.222;2022-07-30T07:04:03;19.20;99.90
12413;DHT22;13877;18.896;-99.222;2022-07-30T07:06:31;19.00;99.90
12413;DHT22;13877;18.896;-99.222;2022-07-30T07:08:59;18.80;99.90
12413;DHT22;13877;18.896;-99.222;2022-07-30T07:11:43;18.60;99.90
12413;DHT22;13877;18.896;-99.222;2022-07-30T07:14:14;18.50;99.90
12413;DHT22;13877;18.896;-99.222;2022-07-30T07:16:41;18.50;99.90
12413;DHT22;13877;18.896;-99.222;2022-07-30T07:19:26;18.50;99.90
12413;DHT22;13877;18.896;-99.222;2022-07-30T07:21:53;18.50;99.90
12413;DHT22;13877;18.896;-99.222;2022-07-30T07:24:20;18.70;99.90
12413;DHT22;13877;18.896;-99.222;2022-07-30T07:26:56;18.70;99.90
12413;DHT22;13877;18.896;-99.222;2022-07-30T07:29:26;18.70;99.90
12413;DHT22;13877;18.896;-99.222;2022-07-30T07:31:52;18.70;99.90
12413;DHT22;13877;18.896;-99.222;2022-07-30T07:34:19;18.70;99.90
12413;DHT22;13877;18.896;-99.222;2022-07-30T07:36:46;18.80;99.90
12413;DHT22;13877;18.896;-99.222;2022-07-30T07:39:13;18.90;99.90
12413;DHT22;13877;18.896;-99.222;2022-07-30T07:41:42;18.90;99.90
12413;DHT22;13877;18.896;-99.222;2022-07-30T07:44:09;19.00;99.90
12413;DHT22;13877;18.896;-99.222;2022-07-30T07:46:36;19.00;99.90
12413;DHT22;13877;18.896;-99.222;2022-07-30T07:49:04;19.00;99.90
12413;DHT22;13877;18.896;-99.222;2022-07-30T07:51:52;18.90;99.90
12413;DHT22;13877;18.896;-99.222;2022-07-30T07:54:20;19.00;99.90
12413;DHT22;13877;18.896;-99.222;2022-07-30T07:56:47;19.10;99.90
12413;DHT22;13877;18.896;-99.222;2022-07-30T07:59:17;19.10;99.90
12413;DHT22;13877;18.896;-99.222;2022-07-30T08:01:43;19.10;99.90
12413;DHT22;13877;18.896;-99.222;2022-07-30T08:04:12;19.20;99.90
12413;DHT22;13877;18.896;-99.222;2022-07-30T08:06:56;19.20;99.90
12413;DHT22;13877;18.896;-99.222;2022-07-30T08:09:42;19.20;99.90
12413;DHT22;13877;18.896;-99.222;2022-07-30T08:12:29;19.30;99.90
12413;DHT22;13877;18.896;-99.222;2022-07-30T08:15:14;19.40;99.90
12413;DHT22;13877;18.896;-99.222;2022-07-30T08:18:07;19.50;99.90
12413;DHT22;13877;18.896;-99.222;2022-07-30T08:20:44;19.40;99.90
12413;DHT22;13877;18.896;-99.222;2022-07-30T08:23:15;19.30;99.90
12413;DHT22;13877;18.896;-99.222;2022-07-30T08:25:42;19.50;99.90
12413;DHT22;13877;18.896;-99.222;2022-07-30T08:28:09;19.50;99.90
12413;DHT22;13877;18.896;-99.222;2022-07-30T08:30:36;19.30;99.90
12413;DHT22;13877;18.896;-99.222;2022-07-30T08:33:03;19.20;99.90
12413;DHT22;13877;18.896;-99.222;2022-07-30T08:35:30;19.00;99.90
12413;DHT22;13877;18.896;-99.222;2022-07-30T08:37:56;18.90;99.90
12413;DHT22;13877;18.896;-99.222;2022-07-30T08:40:25;18.70;99.90
12413;DHT22;13877;18.896;-99.222;2022-07-30T08:43:04;18.60;99.90
12413;DHT22;13877;18.896;-99.222;2022-07-30T08:45:32;18.50;99.90
12413;DHT22;13877;18.896;-99.222;2022-07-30T08:48:10;18.50;99.90
12413;DHT22;13877;18.896;-99.222;2022-07-30T08:50:44;18.60;99.90
12413;DHT22;13877;18.896;-99.222;2022-07-30T08:53:35;18.60;99.90
12413;DHT22;13877;18.896;-99.222;2022-07-30T08:56:03;18.70;99.90
12413;DHT22;13877;18.896;-99.222;2022-07-30T08:58:33;18.60;99.90
12413;DHT22;13877;18.896;-99.222;2022-07-30T09:01:02;18.50;99.90
12413;DHT22;13877;18.896;-99.222;2022-07-30T09:03:29;18.40;99.90
12413;DHT22;13877;18.896;-99.222;2022-07-30T09:06:01;18.30;99.90
12413;DHT22;13877;18.896;-99.222;2022-07-30T09:08:29;18.40;99.90
12413;DHT22;13877;18.896;-99.222;2022-07-30T09:10:57;18.40;99.90
12413;DHT22;13877;18.896;-99.222;2022-07-30T09:13:26;18.30;99.90
12413;DHT22;13877;18.896;-99.222;2022-07-30T09:15:56;18.40;99.90
12413;DHT22;13877;18.896;-99.222;2022-07-30T09:18:31;18.50;99.90
12413;DHT22;13877;18.896;-99.222;2022-07-30T09:21:16;18.50;99.90
12413;DHT22;13877;18.896;-99.222;2022-07-30T09:24:06;18.50;99.90
12413;DHT22;13877;18.896;-99.222;2022-07-30T09:27:02;18.50;99.90
12413;DHT22;13877;18.896;-99.222;2022-07-30T09:29:57;18.60;99.90
12413;DHT22;13877;18.896;-99.222;2022-07-30T09:32:52;18.50;99.90
12413;DHT22;13877;18.896;-99.222;2022-07-30T09:35:32;18.60;99.90
12413;DHT22;13877;18.896;-99.222;2022-07-30T09:38:11;18.50;99.90
12413;DHT22;13877;18.896;-99.222;2022-07-30T09:41:01;18.40;99.90
12413;DHT22;13877;18.896;-99.222;2022-07-30T09:43:51;18.30;99.90
12413;DHT22;13877;18.896;-99.222;2022-07-30T09:46:45;18.40;99.90
12413;DHT22;13877;18.896;-99.222;2022-07-30T09:49:31;18.40;99.90
12413;DHT22;13877;18.896;-99.222;2022-07-30T09:51:58;18.60;99.90
12413;DHT22;13877;18.896;-99.222;2022-07-30T09:54:49;18.70;99.90
12413;DHT22;13877;18.896;-99.222;2022-07-30T09:57:17;18.80;99.90
12413;DHT22;13877;18.896;-99.222;2022-07-30T09:59:43;18.90;99.70
12413;DHT22;13877;18.896;-99.222;2022-07-30T10:02:11;18.90;99.20
12413;DHT22;13877;18.896;-99.222;2022-07-30T10:05:12;18.90;99.10
12413;DHT22;13877;18.896;-99.222;2022-07-30T10:07:47;18.80;95.80
12413;DHT22;13877;18.896;-99.222;2022-07-30T10:10:17;18.90;95.00
12413;DHT22;13877;18.896;-99.222;2022-07-30T10:12:45;18.90;93.50
12413;DHT22;13877;18.896;-99.222;2022-07-30T10:15:12;18.70;94.60
12413;DHT22;13877;18.896;-99.222;2022-07-30T10:17:40;18.60;95.60
12413;DHT22;13877;18.896;-99.222;2022-07-30T10:20:33;18.60;95.50
12413;DHT22;13877;18.896;-99.222;2022-07-30T10:23:19;18.50;94.60
12413;DHT22;13877;18.896;-99.222;2022-07-30T10:26:10;18.40;95.00
12413;DHT22;13877;18.896;-99.222;2022-07-30T10:28:55;18.30;94.30
12413;DHT22;13877;18.896;-99.222;2022-07-30T10:31:25;18.30;93.50
12413;DHT22;13877;18.896;-99.222;2022-07-30T10:33:52;18.30;93.50
12413;DHT22;13877;18.896;-99.222;2022-07-30T10:36:19;18.30;92.80
12413;DHT22;13877;18.896;-99.222;2022-07-30T10:38:47;18.30;92.40
12413;DHT22;13877;18.896;-99.222;2022-07-30T10:41:33;18.30;91.90
12413;DHT22;13877;18.896;-99.222;2022-07-30T10:47:06;18.20;92.00
12413;DHT22;13877;18.896;-99.222;2022-07-30T10:49:34;18.20;92.30
12413;DHT22;13877;18.896;-99.222;2022-07-30T10:52:01;18.20;92.90
12413;DHT22;13877;18.896;-99.222;2022-07-30T10:54:39;18.10;92.10
12413;DHT22;13877;18.896;-99.222;2022-07-30T10:57:17;18.20;91.70
12413;DHT22;13877;18.896;-99.222;2022-07-30T11:02:22;18.10;92.40
12413;DHT22;13877;18.896;-99.222;2022-07-30T11:04:50;18.10;92.10
12413;DHT22;13877;18.896;-99.222;2022-07-30T11:07:36;18.10;91.80
12413;DHT22;13877;18.896;-99.222;2022-07-30T11:10:03;18.10;91.90
12413;DHT22;13877;18.896;-99.222;2022-07-30T11:15:13;18.20;91.70
12413;DHT22;13877;18.896;-99.222;2022-07-30T11:18:00;18.20;92.00
12413;DHT22;13877;18.896;-99.222;2022-07-30T11:20:28;18.10;91.80
12413;DHT22;13877;18.896;-99.222;2022-07-30T11:23:34;18.20;91.50
12413;DHT22;13877;18.896;-99.222;2022-07-30T11:25:58;18.20;91.80
12413;DHT22;13877;18.896;-99.222;2022-07-30T11:28:45;18.10;92.10
12413;DHT22;13877;18.896;-99.222;2022-07-30T11:31:33;18.00;91.10
12413;DHT22;13877;18.896;-99.222;2022-07-30T11:42:36;17.80;91.50
12413;DHT22;13877;18.896;-99.222;2022-07-30T11:47:49;17.70;92.00
12413;DHT22;13877;18.896;-99.222;2022-07-30T11:50:28;17.50;92.40
12413;DHT22;13877;18.896;-99.222;2022-07-30T11:53:04;17.40;92.60
12413;DHT22;13877;18.896;-99.222;2022-07-30T11:55:38;17.40;92.00
12413;DHT22;13877;18.896;-99.222;2022-07-30T11:58:07;17.50;92.20
12413;DHT22;13877;18.896;-99.222;2022-07-30T12:00:37;17.40;92.70
12413;DHT22;13877;18.896;-99.222;2022-07-30T12:03:21;17.30;92.60
12413;DHT22;13877;18.896;-99.222;2022-07-30T12:05:49;17.20;93.10
12413;DHT22;13877;18.896;-99.222;2022-07-30T12:08:16;17.20;93.20
12413;DHT22;13877;18.896;-99.222;2022-07-30T12:10:58;17.20;93.50
12413;DHT22;13877;18.896;-99.222;2022-07-30T12:13:25;17.20;93.40
12413;DHT22;13877;18.896;-99.222;2022-07-30T12:15:52;17.20;93.80
12413;DHT22;13877;18.896;-99.222;2022-07-30T12:18:28;17.00;93.70
12413;DHT22;13877;18.896;-99.222;2022-07-30T12:20:56;17.00;94.10
12413;DHT22;13877;18.896;-99.222;2022-07-30T12:23:24;17.20;93.40
12413;DHT22;13877;18.896;-99.222;2022-07-30T12:25:51;17.40;93.20
12413;DHT22;13877;18.896;-99.222;2022-07-30T12:28:27;17.50;92.80
12413;DHT22;13877;18.896;-99.222;2022-07-30T12:30:56;17.60;92.70
12413;DHT22;13877;18.896;-99.222;2022-07-30T12:33:23;17.60;93.30
12413;DHT22;13877;18.896;-99.222;2022-07-30T12:35:52;17.60;93.10
12413;DHT22;13877;18.896;-99.222;2022-07-30T12:38:21;17.50;93.40
12413;DHT22;13877;18.896;-99.222;2022-07-30T12:40:59;17.50;93.50
12413;DHT22;13877;18.896;-99.222;2022-07-30T12:43:50;17.50;93.80
12413;DHT22;13877;18.896;-99.222;2022-07-30T12:46:25;17.50;93.80
12413;DHT22;13877;18.896;-99.222;2022-07-30T12:49:01;17.30;94.20
12413;DHT22;13877;18.896;-99.222;2022-07-30T12:51:30;17.30;95.30
12413;DHT22;13877;18.896;-99.222;2022-07-30T12:54:13;17.40;96.00
12413;DHT22;13877;18.896;-99.222;2022-07-30T12:56:40;17.30;96.10
12413;DHT22;13877;18.896;-99.222;2022-07-30T12:59:22;17.30;95.90
12413;DHT22;13877;18.896;-99.222;2022-07-30T13:01:48;17.50;95.80
12413;DHT22;13877;18.896;-99.222;2022-07-30T13:04:17;17.70;95.50
12413;DHT22;13877;18.896;-99.222;2022-07-30T13:07:01;18.00;96.30
12413;DHT22;13877;18.896;-99.222;2022-07-30T13:09:28;18.30;96.10
12413;DHT22;13877;18.896;-99.222;2022-07-30T13:11:54;18.60;96.20
12413;DHT22;13877;18.896;-99.222;2022-07-30T13:14:21;18.80;94.30
12413;DHT22;13877;18.896;-99.222;2022-07-30T13:16:48;19.10;93.10
12413;DHT22;13877;18.896;-99.222;2022-07-30T13:19:15;19.20;92.90
12413;DHT22;13877;18.896;-99.222;2022-07-30T13:21:42;19.50;92.90
12413;DHT22;13877;18.896;-99.222;2022-07-30T13:24:08;19.70;92.40
12413;DHT22;13877;18.896;-99.222;2022-07-30T13:26:36;19.90;92.20
12413;DHT22;13877;18.896;-99.222;2022-07-30T13:29:03;20.10;92.00
12413;DHT22;13877;18.896;-99.222;2022-07-30T13:31:30;20.40;91.70
12413;DHT22;13877;18.896;-99.222;2022-07-30T13:33:57;20.70;89.10
12413;DHT22;13877;18.896;-99.222;2022-07-30T13:36:24;20.80;88.60
12413;DHT22;13877;18.896;-99.222;2022-07-30T13:38:51;20.80;88.10
12413;DHT22;13877;18.896;-99.222;2022-07-30T13:41:18;20.80;86.90
12413;DHT22;13877;18.896;-99.222;2022-07-30T13:43:46;20.50;87.70
12413;DHT22;13877;18.896;-99.222;2022-07-30T13:46:12;20.10;89.20
12413;DHT22;13877;18.896;-99.222;2022-07-30T13:48:40;19.90;90.20
12413;DHT22;13877;18.896;-99.222;2022-07-30T13:51:07;19.70;90.60
12413;DHT22;13877;18.896;-99.222;2022-07-30T13:53:34;19.40;91.60
12413;DHT22;13877;18.896;-99.222;2022-07-30T13:56:01;19.20;92.80
12413;DHT22;13877;18.896;-99.222;2022-07-30T13:58:28;19.20;92.50
12413;DHT22;13877;18.896;-99.222;2022-07-30T14:00:55;19.20;93.30
12413;DHT22;13877;18.896;-99.222;2022-07-30T14:03:23;19.30;93.20
12413;DHT22;13877;18.896;-99.222;2022-07-30T14:05:50;19.30;92.80
12413;DHT22;13877;18.896;-99.222;2022-07-30T14:08:17;19.40;93.10
12413;DHT22;13877;18.896;-99.222;2022-07-30T14:10:43;19.50;93.30
12413;DHT22;13877;18.896;-99.222;2022-07-30T14:13:10;19.80;92.30
12413;DHT22;13877;18.896;-99.222;2022-07-30T14:15:37;20.10;92.40
12413;DHT22;13877;18.896;-99.222;2022-07-30T14:18:04;20.80;91.90
12413;DHT22;13877;18.896;-99.222;2022-07-30T14:20:31;21.60;91.00
12413;DHT22;13877;18.896;-99.222;2022-07-30T14:22:58;22.30;84.20
12413;DHT22;13877;18.896;-99.222;2022-07-30T14:25:25;22.80;82.70
12413;DHT22;13877;18.896;-99.222;2022-07-30T14:27:52;22.80;83.30
12413;DHT22;13877;18.896;-99.222;2022-07-30T14:30:19;22.70;83.00
12413;DHT22;13877;18.896;-99.222;2022-07-30T14:32:46;22.70;81.00
12413;DHT22;13877;18.896;-99.222;2022-07-30T14:35:13;23.00;81.30
12413;DHT22;13877;18.896;-99.222;2022-07-30T14:37:40;23.20;79.70
12413;DHT22;13877;18.896;-99.222;2022-07-30T14:40:08;23.40;79.40
12413;DHT22;13877;18.896;-99.222;2022-07-30T14:42:38;23.70;80.10
12413;DHT22;13877;18.896;-99.222;2022-07-30T14:45:08;23.90;80.10
12413;DHT22;13877;18.896;-99.222;2022-07-30T14:47:36;24.10;80.90
12413;DHT22;13877;18.896;-99.222;2022-07-30T14:50:05;24.30;81.20
12413;DHT22;13877;18.896;-99.222;2022-07-30T14:52:32;24.00;79.90
12413;DHT22;13877;18.896;-99.222;2022-07-30T14:55:01;24.20;81.00
12413;DHT22;13877;18.896;-99.222;2022-07-30T14:57:28;24.30;74.20
12413;DHT22;13877;18.896;-99.222;2022-07-30T14:59:55;24.20;78.00
12413;DHT22;13877;18.896;-99.222;2022-07-30T15:02:22;24.10;77.60
12413;DHT22;13877;18.896;-99.222;2022-07-30T15:04:49;24.10;75.90
12413;DHT22;13877;18.896;-99.222;2022-07-30T15:07:16;24.20;73.90
12413;DHT22;13877;18.896;-99.222;2022-07-30T15:09:42;24.00;71.30
12413;DHT22;13877;18.896;-99.222;2022-07-30T15:12:09;24.10;73.40
12413;DHT22;13877;18.896;-99.222;2022-07-30T15:14:37;24.30;73.60
12413;DHT22;13877;18.896;-99.222;2022-07-30T15:17:05;24.00;74.10
12413;DHT22;13877;18.896;-99.222;2022-07-30T15:19:32;24.60;75.50
12413;DHT22;13877;18.896;-99.222;2022-07-30T15:21:59;24.70;70.70
12413;DHT22;13877;18.896;-99.222;2022-07-30T15:24:27;24.40;72.10
12413;DHT22;13877;18.896;-99.222;2022-07-30T15:26:54;24.80;72.90
12413;DHT22;13877;18.896;-99.222;2022-07-30T15:29:21;25.30;72.20
12413;DHT22;13877;18.896;-99.222;2022-07-30T15:31:50;25.20;70.10
12413;DHT22;13877;18.896;-99.222;2022-07-30T15:34:17;24.90;71.20
12413;DHT22;13877;18.896;-99.222;2022-07-30T15:36:43;25.10;73.30
12413;DHT22;13877;18.896;-99.222;2022-07-30T15:39:10;25.40;70.00
12413;DHT22;13877;18.896;-99.222;2022-07-30T15:41:38;25.20;70.30
12413;DHT22;13877;18.896;-99.222;2022-07-30T15:44:05;25.20;68.90
12413;DHT22;13877;18.896;-99.222;2022-07-30T15:46:32;25.30;72.70
12413;DHT22;13877;18.896;-99.222;2022-07-30T15:48:59;25.50;70.40
12413;DHT22;13877;18.896;-99.222;2022-07-30T15:51:26;26.10;72.20
12413;DHT22;13877;18.896;-99.222;2022-07-30T15:53:53;25.80;68.00